createdAt,value
2022-11-29T00:01:35.977Z,97168.41
2022-11-29T00:03:44.184Z,97159.56
2022-11-29T00:05:52.181Z,97159.72
2022-11-29T00:08:00.068Z,97165.97
2022-11-29T00:10:09.827Z,97158.78
2022-11-29T00:12:18.547Z,97168.16
2022-11-29T00:14:30.279Z,97167.41
2022-11-29T00:16:40.991Z,97168.16
2022-11-29T00:18:52.366Z,97167.06
2022-11-29T00:21:00.554Z,97151.22
2022-11-29T00:23:09.164Z,97158.78
2022-11-29T00:25:17.400Z,97159.28
2022-11-29T00:27:25.296Z,97163.22
2022-11-29T00:29:36.148Z,97158.63
2022-11-29T00:31:44.572Z,97154.19
2022-11-29T00:33:53.094Z,97154.59
2022-11-29T00:36:04.624Z,97163.09
2022-11-29T00:38:12.697Z,97156.28
2022-11-29T00:40:21.146Z,97163.28
2022-11-29T00:42:29.268Z,97158.75
2022-11-29T00:44:39.959Z,97164.22
2022-11-29T00:46:48.157Z,97165.41
2022-11-29T00:48:56.499Z,97161.91
2022-11-29T00:51:04.484Z,97162.88
2022-11-29T00:53:12.621Z,97169.50
2022-11-29T00:55:20.695Z,97177.44
2022-11-29T00:57:29.059Z,97163.03
2022-11-29T00:59:39.672Z,97168.16
2022-11-29T01:01:47.608Z,97168.16
2022-11-29T01:03:55.477Z,97169.00
2022-11-29T01:06:04.591Z,97165.50
2022-11-29T01:08:12.647Z,97163.72
2022-11-29T01:10:20.796Z,97177.97
2022-11-29T01:12:29.263Z,97163.56
2022-11-29T01:14:40.261Z,97168.16
2022-11-29T01:16:48.557Z,97164.56
2022-11-29T01:18:56.532Z,97172.13
2022-11-29T01:21:07.297Z,97166.00
2022-11-29T01:23:15.179Z,97169.31
2022-11-29T01:25:23.689Z,97169.59
2022-11-29T01:27:32.515Z,97175.34
2022-11-29T01:29:43.077Z,97176.63
2022-11-29T01:31:50.987Z,97178.34
2022-11-29T01:34:00.128Z,97185.50
2022-11-29T01:36:09.972Z,97179.91
2022-11-29T01:38:18.090Z,97180.66
2022-11-29T01:40:26.325Z,97182.28
2022-11-29T01:42:34.200Z,97182.00
2022-11-29T01:45:08.009Z,97184.13
2022-11-29T01:47:16.104Z,97179.63
2022-11-29T01:49:27.684Z,97181.22
2022-11-29T01:51:39.244Z,97173.31
2022-11-29T01:53:47.478Z,97182.97
2022-11-29T01:55:59.136Z,97186.63
2022-11-29T01:58:09.470Z,97181.69
2022-11-29T02:00:22.799Z,97181.75
2022-11-29T02:02:35.239Z,97186.97
2022-11-29T02:04:48.064Z,97190.19
2022-11-29T02:06:56.400Z,97182.28
2022-11-29T02:09:05.778Z,97184.13
2022-11-29T02:11:45.363Z,97182.44
2022-11-29T02:14:07.654Z,97178.09
2022-11-29T02:16:26.886Z,97182.19
2022-11-29T02:18:48.644Z,97185.00
2022-11-29T02:21:18.331Z,97177.09
2022-11-29T02:23:51.779Z,97178.94
2022-11-29T02:26:15.244Z,97180.66
2022-11-29T02:28:52.987Z,97181.91
2022-11-29T02:31:37.821Z,97189.34
2022-11-29T02:34:10.240Z,97186.16
2022-11-29T02:36:29.368Z,97183.97
2022-11-29T02:39:03.530Z,97188.03
2022-11-29T02:41:30.649Z,97190.38
2022-11-29T02:44:12.569Z,97186.44
2022-11-29T02:46:47.326Z,97182.00
2022-11-29T02:49:03.261Z,97182.19
2022-11-29T02:51:18.121Z,97187.47
2022-11-29T02:53:35.566Z,97184.13
2022-11-29T02:55:51.456Z,97186.34
2022-11-29T02:58:05.781Z,97183.72
2022-11-29T03:00:17.923Z,97191.31
2022-11-29T03:02:33.887Z,97185.00
2022-11-29T03:04:50.778Z,97184.22
2022-11-29T03:07:09.222Z,97188.41
2022-11-29T03:09:28.207Z,97185.31
2022-11-29T03:11:43.762Z,97183.22
2022-11-29T03:13:59.561Z,97192.22
2022-11-29T03:16:14.548Z,97189.94
2022-11-29T03:18:37.743Z,97198.63
2022-11-29T03:21:00.742Z,97189.63
2022-11-29T03:23:22.969Z,97200.25
2022-11-29T03:25:40.108Z,97196.50
2022-11-29T03:27:53.725Z,97193.94
2022-11-29T03:30:05.590Z,97197.75
2022-11-29T03:32:19.420Z,97210.03
2022-11-29T03:34:40.141Z,97202.88
2022-11-29T03:36:56.771Z,97202.19
2022-11-29T03:39:12.944Z,97201.25
2022-11-29T03:41:28.268Z,97201.84
2022-11-29T03:43:45.752Z,97203.56
2022-11-29T03:46:01.830Z,97207.63
2022-11-29T03:48:15.514Z,97202.19
2022-11-29T03:50:29.935Z,97202.88
2022-11-29T03:52:46.037Z,97212.53
2022-11-29T03:55:06.476Z,97213.44
2022-11-29T03:57:20.932Z,97200.41
2022-11-29T03:59:49.152Z,97212.00
2022-11-29T04:02:14.991Z,97206.22
2022-11-29T04:05:04.849Z,97214.47
2022-11-29T04:07:33.194Z,97209.38
2022-11-29T04:10:00.661Z,97208.66
2022-11-29T04:12:44.571Z,97204.59
2022-11-29T04:15:18.507Z,97208.75
2022-11-29T04:18:08.015Z,97215.72
2022-11-29T04:20:48.584Z,97210.34
2022-11-29T04:23:20.067Z,97222.28
2022-11-29T04:25:51.088Z,97225.84
2022-11-29T04:28:26.903Z,97228.75
2022-11-29T04:30:46.374Z,97232.81
2022-11-29T04:33:20.005Z,97239.31
2022-11-29T04:35:41.550Z,97230.38
2022-11-29T04:38:22.197Z,97238.78
2022-11-29T04:40:44.377Z,97241.53
2022-11-29T04:43:18.906Z,97236.34
2022-11-29T04:45:47.946Z,97241.69
2022-11-29T04:48:11.202Z,97244.88
2022-11-29T04:50:30.840Z,97245.16
2022-11-29T04:52:59.027Z,97246.78
2022-11-29T04:55:27.655Z,97248.00
2022-11-29T04:57:44.741Z,97251.66
2022-11-29T04:59:59.999Z,97253.44
2022-11-29T05:02:27.372Z,97257.53
2022-11-29T05:04:44.047Z,97261.78
2022-11-29T05:07:05.515Z,97263.00
2022-11-29T05:09:22.791Z,97265.28
2022-11-29T05:11:46.424Z,97275.81
2022-11-29T05:14:01.834Z,97272.84
2022-11-29T05:16:18.985Z,97274.75
2022-11-29T05:18:48.554Z,97280.69
2022-11-29T05:21:03.694Z,97282.75
2022-11-29T05:23:28.267Z,97282.09
2022-11-29T05:25:46.266Z,97281.88
2022-11-29T05:28:02.502Z,97275.41
2022-11-29T05:30:17.855Z,97284.47
2022-11-29T05:32:32.692Z,97285.38
2022-11-29T05:34:57.207Z,97285.31
2022-11-29T05:37:16.692Z,97286.22
2022-11-29T05:39:39.378Z,97295.88
2022-11-29T05:42:05.888Z,97295.09
2022-11-29T05:44:19.047Z,97302.97
2022-11-29T05:46:35.563Z,97293.84
2022-11-29T05:48:54.124Z,97294.75
2022-11-29T05:51:19.568Z,97295.69
2022-11-29T05:53:33.402Z,97292.09
2022-11-29T05:55:52.641Z,97292.88
2022-11-29T05:58:05.613Z,97298.50
2022-11-29T06:00:16.990Z,97300.63
2022-11-29T06:02:35.975Z,97307.53
2022-11-29T06:05:00.450Z,97306.59
2022-11-29T06:07:19.392Z,97305.56
2022-11-29T06:09:34.525Z,97307.28
2022-11-29T06:11:49.035Z,97308.22
2022-11-29T06:14:07.225Z,97303.84
2022-11-29T06:16:59.411Z,97311.53
2022-11-29T06:19:49.274Z,97323.22
2022-11-29T06:22:10.274Z,97319.91
2022-11-29T06:24:36.907Z,97321.78
2022-11-29T06:27:02.424Z,97318.00
2022-11-29T06:29:26.988Z,97325.34
2022-11-29T06:31:43.607Z,97327.84
2022-11-29T06:34:01.986Z,97332.09
2022-11-29T06:36:19.269Z,97327.16
2022-11-29T06:38:30.548Z,97336.13
2022-11-29T06:40:41.831Z,97328.78
2022-11-29T06:42:49.726Z,97336.53
2022-11-29T06:44:58.867Z,97335.09
2022-11-29T06:47:10.518Z,97338.16
2022-11-29T06:49:26.921Z,97331.13
2022-11-29T06:51:39.326Z,97330.03
2022-11-29T06:53:56.246Z,97338.06
2022-11-29T06:56:15.413Z,97347.94
2022-11-29T06:58:44.954Z,97341.38
2022-11-29T07:01:02.633Z,97341.22
2022-11-29T07:03:31.276Z,97344.97
2022-11-29T07:05:41.635Z,97345.16
2022-11-29T07:07:53.294Z,97344.91
2022-11-29T07:10:02.388Z,97346.16
2022-11-29T07:12:15.537Z,97347.59
2022-11-29T07:14:25.324Z,97357.25
2022-11-29T07:16:40.497Z,97360.06
2022-11-29T07:18:57.952Z,97355.94
2022-11-29T07:21:18.337Z,97365.84
2022-11-29T07:23:37.668Z,97370.78
2022-11-29T07:25:56.166Z,97368.69
2022-11-29T07:28:19.164Z,97372.34
2022-11-29T07:30:37.342Z,97367.63
2022-11-29T07:33:00.108Z,97371.91
2022-11-29T07:35:17.747Z,97373.69
2022-11-29T07:37:36.398Z,97367.03
2022-11-29T07:40:00.414Z,97372.56
2022-11-29T07:42:20.621Z,97368.06
2022-11-29T07:44:39.983Z,97368.47
2022-11-29T07:46:49.341Z,97368.16
2022-11-29T07:48:58.534Z,97376.44
2022-11-29T07:51:08.081Z,97378.31
2022-11-29T07:53:19.851Z,97371.91
2022-11-29T07:55:29.802Z,97369.75
2022-11-29T07:57:39.501Z,97376.63
2022-11-29T07:59:51.219Z,97380.44
2022-11-29T08:01:59.411Z,97377.69
2022-11-29T08:04:08.652Z,97378.03
2022-11-29T08:06:16.464Z,97376.75
2022-11-29T08:08:25.180Z,97380.59
2022-11-29T08:10:33.392Z,97382.72
2022-11-29T08:12:46.699Z,97380.69
2022-11-29T08:14:57.095Z,97383.13
2022-11-29T08:17:05.018Z,97385.03
2022-11-29T08:19:12.929Z,97390.91
2022-11-29T08:21:21.200Z,97395.78
2022-11-29T08:24:04.111Z,97390.22
2022-11-29T08:26:31.600Z,97394.91
2022-11-29T08:28:56.294Z,97394.91
2022-11-29T08:31:12.494Z,97390.22
2022-11-29T08:33:21.389Z,97390.56
2022-11-29T08:35:29.439Z,97398.25
2022-11-29T08:37:37.478Z,97396.63
2022-11-29T08:39:47.034Z,97397.72
2022-11-29T08:41:54.968Z,97402.94
2022-11-29T08:44:03.178Z,97407.38
2022-11-29T08:46:18.516Z,97405.06
2022-11-29T08:48:26.909Z,97395.00
2022-11-29T08:50:34.841Z,97398.91
2022-11-29T08:52:56.945Z,97405.31
2022-11-29T08:55:04.790Z,97410.97
2022-11-29T08:59:44.957Z,97415.22
2022-11-29T09:01:55.346Z,97411.81
2022-11-29T09:04:03.287Z,97419.47
2022-11-29T09:06:13.317Z,97415.03
2022-11-29T09:08:21.301Z,97421.88
2022-11-29T09:10:32.268Z,97419.28
2022-11-29T09:12:41.001Z,97422.09
2022-11-29T09:14:53.496Z,97423.44
2022-11-29T09:17:04.418Z,97428.34
2022-11-29T09:19:13.472Z,97430.69
2022-11-29T09:21:21.861Z,97434.22
2022-11-29T09:23:32.017Z,97427.50
2022-11-29T09:25:41.710Z,97432.81
2022-11-29T09:27:49.466Z,97433.50
2022-11-29T09:29:57.362Z,97442.19
2022-11-29T09:32:09.504Z,97450.13
2022-11-29T09:34:18.551Z,97443.88
2022-11-29T09:36:28.997Z,97449.50
2022-11-29T09:38:38.371Z,97447.00
2022-11-29T09:40:55.039Z,97449.22
2022-11-29T09:43:10.927Z,97455.47
2022-11-29T09:45:24.084Z,97465.69
2022-11-29T09:47:56.870Z,97467.09
2022-11-29T09:50:20.812Z,97463.28
2022-11-29T09:52:39.526Z,97464.25
2022-11-29T09:54:57.672Z,97473.63
2022-11-29T09:57:10.819Z,97468.03
2022-11-29T09:59:25.854Z,97473.47
2022-11-29T10:01:38.724Z,97476.13
2022-11-29T10:03:54.670Z,97477.69
2022-11-29T10:06:08.934Z,97487.59
2022-11-29T10:08:23.590Z,97483.41
2022-11-29T10:10:37.922Z,97482.44
2022-11-29T10:12:51.702Z,97475.63
2022-11-29T10:15:09.257Z,97483.91
2022-11-29T10:17:28.651Z,97487.06
2022-11-29T10:19:44.705Z,97483.91
2022-11-29T10:22:01.271Z,97474.66
2022-11-29T10:24:17.975Z,97479.25
2022-11-29T10:26:32.020Z,97471.56
2022-11-29T10:28:48.758Z,97477.44
2022-11-29T10:30:58.607Z,97472.50
2022-11-29T10:33:16.055Z,97479.16
2022-11-29T10:35:27.392Z,97478.84
2022-11-29T10:37:35.526Z,97475.50
2022-11-29T10:39:49.348Z,97473.81
2022-11-29T10:41:59.913Z,97470.66
2022-11-29T10:44:09.140Z,97478.25
2022-11-29T10:46:26.648Z,97478.00
2022-11-29T10:48:38.248Z,97474.22
2022-11-29T10:50:52.651Z,97470.66
2022-11-29T10:53:09.298Z,97469.09
2022-11-29T10:55:19.968Z,97467.47
2022-11-29T10:57:28.068Z,97471.50
2022-11-29T10:59:37.291Z,97477.16
2022-11-29T11:01:49.070Z,97486.19
2022-11-29T11:03:58.946Z,97483.09
2022-11-29T11:06:17.215Z,97487.34
2022-11-29T11:08:28.426Z,97490.34
2022-11-29T11:10:36.237Z,97490.59
2022-11-29T11:12:44.317Z,97493.41
2022-11-29T11:14:52.289Z,97495.31
2022-11-29T11:17:18.269Z,97492.66
2022-11-29T11:19:33.582Z,97495.69
2022-11-29T11:21:44.514Z,97493.25
2022-11-29T11:24:00.575Z,97492.78
2022-11-29T11:26:11.255Z,97492.16
2022-11-29T11:28:24.187Z,97496.59
2022-11-29T11:30:32.861Z,97505.41
2022-11-29T11:32:40.916Z,97502.94
2022-11-29T11:34:55.007Z,97505.59
2022-11-29T11:37:31.854Z,97509.00
2022-11-29T11:39:39.789Z,97511.81
2022-11-29T11:42:00.826Z,97516.09
2022-11-29T11:44:45.666Z,97519.69
2022-11-29T11:46:51.424Z,97518.56
2022-11-29T11:48:59.336Z,97532.16
2022-11-29T11:51:08.348Z,97530.91
2022-11-29T11:53:28.128Z,97529.34
2022-11-29T11:55:39.495Z,97534.31
2022-11-29T11:57:48.306Z,97524.31
2022-11-29T12:00:06.626Z,97529.16
2022-11-29T12:02:41.014Z,97533.47
2022-11-29T12:04:49.373Z,97523.50
2022-11-29T12:07:03.134Z,97522.28
2022-11-29T12:09:26.068Z,97521.41
2022-11-29T12:11:42.606Z,97533.97
2022-11-29T12:13:55.269Z,97530.13
2022-11-29T12:16:11.715Z,97525.66
2022-11-29T12:18:26.602Z,97532.00
2022-11-29T12:20:42.524Z,97536.19
2022-11-29T12:23:19.575Z,97526.84
2022-11-29T12:25:35.288Z,97533.25
2022-11-29T12:27:44.543Z,97532.34
2022-11-29T12:29:52.519Z,97542.09
2022-11-29T12:32:14.338Z,97545.69
2022-11-29T12:34:35.047Z,97544.00
2022-11-29T12:36:53.794Z,97554.69
2022-11-29T12:39:26.939Z,97555.13
2022-11-29T12:41:53.765Z,97557.00
2022-11-29T12:44:14.331Z,97556.16
2022-11-29T12:46:28.251Z,97557.16
2022-11-29T12:48:46.469Z,97553.50
2022-11-29T12:51:04.111Z,97547.03
2022-11-29T12:53:27.543Z,97553.19
2022-11-29T12:55:46.349Z,97553.44
2022-11-29T12:58:05.786Z,97552.13
2022-11-29T13:00:16.574Z,97549.69
2022-11-29T13:02:33.795Z,97552.91
2022-11-29T13:04:48.595Z,97550.75
2022-11-29T13:07:02.669Z,97558.72
2022-11-29T13:09:38.931Z,97564.69
2022-11-29T13:11:58.394Z,97564.34
2022-11-29T13:16:56.334Z,97566.78
2022-11-29T13:19:12.091Z,97568.28
2022-11-29T13:21:26.161Z,97569.56
2022-11-29T13:24:10.739Z,97572.38
2022-11-29T13:26:15.173Z,97575.53
2022-11-29T13:28:28.126Z,97574.06
2022-11-29T13:30:41.791Z,97575.44
2022-11-29T13:32:55.959Z,97575.94
2022-11-29T13:35:09.021Z,97576.56
2022-11-29T13:37:23.717Z,97576.28
2022-11-29T13:39:42.845Z,97572.88
2022-11-29T13:41:58.249Z,97575.19
2022-11-29T13:44:17.201Z,97583.56
2022-11-29T13:46:32.981Z,97579.38
2022-11-29T13:48:51.043Z,97579.91
2022-11-29T13:51:00.269Z,97579.28
2022-11-29T13:53:15.347Z,97575.34
2022-11-29T13:55:29.448Z,97578.19
2022-11-29T14:00:35.281Z,97576.66
2022-11-29T14:02:46.213Z,97576.31
2022-11-29T14:04:55.196Z,97581.09
2022-11-29T14:07:15.528Z,97581.59
2022-11-29T14:09:31.856Z,97577.50
2022-11-29T14:11:48.855Z,97578.25
2022-11-29T14:14:04.486Z,97569.66
2022-11-29T14:16:21.289Z,97573.50
2022-11-29T14:19:11.856Z,97567.28
2022-11-29T14:21:22.414Z,97572.19
2022-11-29T14:23:54.166Z,97564.63
2022-11-29T14:26:35.787Z,97564.78
2022-11-29T14:28:43.952Z,97575.28
2022-11-29T14:30:53.547Z,97574.84
2022-11-29T14:33:08.662Z,97567.66
2022-11-29T14:35:24.601Z,97568.34
2022-11-29T14:37:58.501Z,97569.66
2022-11-29T14:40:22.548Z,97568.47
2022-11-29T14:42:32.311Z,97568.47
2022-11-29T14:44:46.879Z,97566.41
2022-11-29T14:47:04.283Z,97567.16
2022-11-29T14:49:24.479Z,97573.31
2022-11-29T14:51:34.479Z,97569.72
2022-11-29T14:53:49.964Z,97569.44
2022-11-29T14:56:30.506Z,97574.44
2022-11-29T14:58:38.405Z,97581.81
2022-11-29T15:01:09.713Z,97575.88
2022-11-29T15:03:24.620Z,97573.53
2022-11-29T15:05:37.376Z,97575.50
2022-11-29T15:07:48.392Z,97572.34
2022-11-29T15:10:04.413Z,97575.25
2022-11-29T15:12:19.709Z,97573.63
2022-11-29T15:14:45.640Z,97575.16
2022-11-29T15:17:20.627Z,97570.22
2022-11-29T15:20:00.898Z,97578.31
2022-11-29T15:22:17.292Z,97578.66
2022-11-29T15:24:28.771Z,97583.50
2022-11-29T15:26:39.540Z,97582.59
2022-11-29T15:28:49.898Z,97584.53
2022-11-29T15:31:06.200Z,97585.22
2022-11-29T15:33:23.730Z,97580.84
2022-11-29T15:35:32.668Z,97586.06
2022-11-29T15:37:46.021Z,97583.50
2022-11-29T15:40:06.482Z,97590.06
2022-11-29T15:42:18.408Z,97592.03
2022-11-29T15:44:26.244Z,97594.16
2022-11-29T15:46:35.969Z,97594.34
2022-11-29T15:48:43.923Z,97600.25
2022-11-29T15:51:06.197Z,97596.19
2022-11-29T15:53:23.129Z,97599.78
2022-11-29T15:55:31.566Z,97606.75
2022-11-29T15:57:46.221Z,97606.38
2022-11-29T15:59:57.927Z,97607.63
2022-11-29T16:02:11.682Z,97604.13
2022-11-29T16:04:24.465Z,97606.16
2022-11-29T16:06:39.361Z,97612.38
2022-11-29T16:08:47.350Z,97615.16
2022-11-29T16:10:56.207Z,97606.38
2022-11-29T16:13:10.796Z,97606.25
2022-11-29T16:15:29.306Z,97606.25
2022-11-29T16:17:38.370Z,97612.38
2022-11-29T16:19:48.300Z,97615.16
2022-11-29T16:22:05.334Z,97610.69
2022-11-29T16:24:23.181Z,97612.13
2022-11-29T16:26:37.111Z,97618.53
2022-11-29T16:28:50.382Z,97614.78
2022-11-29T16:31:00.131Z,97622.38
2022-11-29T16:33:10.179Z,97629.38
2022-11-29T16:35:23.975Z,97621.63
2022-11-29T16:37:37.065Z,97634.78
2022-11-29T16:39:49.277Z,97638.09
2022-11-29T16:42:08.950Z,97640.06
2022-11-29T16:45:02.776Z,97633.00
2022-11-29T16:47:14.945Z,97637.25
2022-11-29T16:49:38.598Z,97633.53
2022-11-29T16:51:49.210Z,97634.50
2022-11-29T16:53:57.554Z,97641.53
2022-11-29T16:56:06.456Z,97643.09
2022-11-29T16:58:15.339Z,97645.03
2022-11-29T17:00:34.359Z,97644.19
2022-11-29T17:02:43.528Z,97641.84
2022-11-29T17:04:53.932Z,97643.66
2022-11-29T17:07:02.821Z,97634.53
2022-11-29T17:09:13.312Z,97644.03
2022-11-29T17:11:22.482Z,97653.84
2022-11-29T17:13:30.920Z,97651.19
2022-11-29T17:15:42.704Z,97647.22
2022-11-29T17:17:50.914Z,97651.03
2022-11-29T17:19:59.312Z,97646.97
2022-11-29T17:22:07.246Z,97646.28
2022-11-29T17:24:17.742Z,97647.28
2022-11-29T17:26:26.845Z,97649.41
2022-11-29T17:28:35.328Z,97652.25
2022-11-29T17:30:46.338Z,97656.69
2022-11-29T17:32:54.492Z,97654.81
2022-11-29T17:35:02.551Z,97660.34
2022-11-29T17:37:10.430Z,97656.94
2022-11-29T17:39:20.341Z,97662.31
2022-11-29T17:41:32.690Z,97663.47
2022-11-29T17:43:40.886Z,97663.28
2022-11-29T17:45:51.669Z,97658.41
2022-11-29T17:48:01.992Z,97662.75
2022-11-29T17:50:11.198Z,97660.84
2022-11-29T17:52:22.761Z,97662.38
2022-11-29T17:54:33.157Z,97664.56
2022-11-29T17:56:44.311Z,97669.66
2022-11-29T17:58:57.070Z,97667.44
2022-11-29T18:01:13.114Z,97663.94
2022-11-29T18:03:21.194Z,97663.53
2022-11-29T18:05:34.362Z,97660.44
2022-11-29T18:07:58.120Z,97670.47
2022-11-29T18:10:06.666Z,97663.09
2022-11-29T18:12:14.600Z,97667.47
2022-11-29T18:14:28.292Z,97677.28
2022-11-29T18:16:39.231Z,97672.63
2022-11-29T18:18:51.510Z,97676.13
2022-11-29T18:21:01.368Z,97677.19
2022-11-29T18:23:13.287Z,97675.13
2022-11-29T18:27:50.458Z,97667.75
2022-11-29T18:29:59.906Z,97672.78
2022-11-29T18:32:12.658Z,97676.50
2022-11-29T18:34:20.541Z,97678.09
2022-11-29T18:36:30.291Z,97683.81
2022-11-29T18:38:38.099Z,97683.50
2022-11-29T18:40:50.647Z,97688.47
2022-11-29T18:42:58.758Z,97695.63
2022-11-29T18:45:10.341Z,97695.63
2022-11-29T18:47:20.904Z,97698.19
2022-11-29T18:49:28.946Z,97689.63
2022-11-29T18:51:38.087Z,97692.84
2022-11-29T18:53:46.656Z,97699.22
2022-11-29T18:56:02.771Z,97689.03
2022-11-29T18:58:10.646Z,97693.47
2022-11-29T19:00:19.761Z,97697.34
2022-11-29T19:02:30.168Z,97694.56
2022-11-29T19:04:38.154Z,97696.97
2022-11-29T19:06:46.226Z,97701.09
2022-11-29T19:08:57.132Z,97697.81
2022-11-29T19:11:07.446Z,97690.97
2022-11-29T19:13:15.312Z,97695.63
2022-11-29T19:15:23.149Z,97696.34
2022-11-29T19:17:37.654Z,97699.34
2022-11-29T19:19:48.675Z,97694.88
2022-11-29T19:21:56.542Z,97697.03
2022-11-29T19:24:07.680Z,97703.38
2022-11-29T19:26:16.969Z,97695.53
2022-11-29T19:28:24.907Z,97697.97
2022-11-29T19:30:32.817Z,97696.25
2022-11-29T19:32:43.950Z,97702.53
2022-11-29T19:34:52.834Z,97701.53
2022-11-29T19:37:00.528Z,97703.38
2022-11-29T19:39:08.356Z,97703.56
2022-11-29T19:41:18.861Z,97694.84
2022-11-29T19:43:26.755Z,97704.19
2022-11-29T19:45:34.553Z,97704.81
2022-11-29T19:47:45.329Z,97705.34
2022-11-29T19:49:55.032Z,97706.44
2022-11-29T19:52:04.621Z,97714.03
2022-11-29T19:54:13.161Z,97723.59
2022-11-29T19:56:20.910Z,97725.31
2022-11-29T19:58:29.524Z,97733.69
2022-11-29T20:00:37.472Z,97732.69
2022-11-29T20:02:48.161Z,97732.72
2022-11-29T20:04:56.265Z,97724.59
2022-11-29T20:07:06.895Z,97723.59
2022-11-29T20:09:16.496Z,97725.31
2022-11-29T20:11:27.479Z,97722.94
2022-11-29T20:13:35.536Z,97729.16
2022-11-29T20:15:43.408Z,97732.84
2022-11-29T20:17:54.698Z,97734.94
2022-11-29T20:20:02.783Z,97737.66
2022-11-29T20:22:10.777Z,97738.44
2022-11-29T20:24:26.169Z,97737.38
2022-11-29T20:26:36.419Z,97739.75
2022-11-29T20:28:44.566Z,97730.59
2022-11-29T20:30:55.346Z,97729.97
2022-11-29T20:33:07.007Z,97741.06
2022-11-29T20:35:18.505Z,97734.25
2022-11-29T20:37:48.650Z,97734.94
2022-11-29T20:40:02.612Z,97740.38
2022-11-29T20:42:37.856Z,97738.38
2022-11-29T20:44:54.877Z,97736.00
2022-11-29T20:47:03.823Z,97741.47
2022-11-29T20:49:19.174Z,97740.94
2022-11-29T20:51:32.606Z,97742.94
2022-11-29T20:53:43.102Z,97739.53
2022-11-29T20:55:52.906Z,97755.84
2022-11-29T20:58:00.778Z,97755.22
2022-11-29T21:00:10.695Z,97757.38
2022-11-29T21:02:18.740Z,97761.38
2022-11-29T21:04:30.388Z,97766.03
2022-11-29T21:06:42.215Z,97775.50
2022-11-29T21:08:51.237Z,97761.22
2022-11-29T21:11:04.784Z,97759.22
2022-11-29T21:13:14.320Z,97758.25
2022-11-29T21:15:23.134Z,97761.78
2022-11-29T21:17:33.771Z,97760.03
2022-11-29T21:19:45.331Z,97759.50
2022-11-29T21:22:03.113Z,97758.59
2022-11-29T21:24:23.436Z,97759.22
2022-11-29T21:26:41.358Z,97759.22
2022-11-29T21:29:00.284Z,97756.75
2022-11-29T21:31:09.057Z,97758.38
2022-11-29T21:33:17.503Z,97752.88
2022-11-29T21:35:29.206Z,97757.81
2022-11-29T21:37:39.171Z,97754.88
2022-11-29T21:39:47.207Z,97752.75
2022-11-29T21:41:55.719Z,97753.84
2022-11-29T21:44:07.940Z,97758.50
2022-11-29T21:46:17.011Z,97757.44
2022-11-29T21:48:42.359Z,97765.38
2022-11-29T21:50:56.441Z,97767.81
2022-11-29T21:53:04.429Z,97773.94
2022-11-29T21:55:12.453Z,97767.56
2022-11-29T21:57:21.009Z,97777.22
2022-11-29T21:59:28.798Z,97766.41
2022-11-29T22:01:39.575Z,97769.53
2022-11-29T22:03:47.885Z,97785.06
2022-11-29T22:06:04.388Z,97780.72
2022-11-29T22:08:13.269Z,97783.06
2022-11-29T22:10:25.023Z,97783.72
2022-11-29T22:12:34.645Z,97783.34
2022-11-29T22:14:43.109Z,97794.41
2022-11-29T22:16:52.596Z,97789.78
2022-11-29T22:19:00.481Z,97791.63
2022-11-29T22:21:11.043Z,97787.91
2022-11-29T22:23:19.018Z,97795.47
2022-11-29T22:25:27.932Z,97795.31
2022-11-29T22:27:35.723Z,97793.56
2022-11-29T22:29:45.336Z,97795.97
2022-11-29T22:31:55.110Z,97790.94
2022-11-29T22:34:04.472Z,97792.91
2022-11-29T22:36:16.714Z,97788.44
2022-11-29T22:38:25.829Z,97787.63
2022-11-29T22:40:35.384Z,97782.91
2022-11-29T22:42:43.958Z,97788.19
2022-11-29T22:44:54.586Z,97790.06
2022-11-29T22:47:03.976Z,97786.63
2022-11-29T22:49:12.028Z,97784.91
2022-11-29T22:51:24.218Z,97793.00
2022-11-29T22:53:32.054Z,97787.41
2022-11-29T22:55:40.091Z,97783.91
2022-11-29T22:57:47.990Z,97787.41
2022-11-29T22:59:55.911Z,97788.47
2022-11-29T23:02:05.044Z,97778.50
2022-11-29T23:04:16.204Z,97791.84
2022-11-29T23:06:28.215Z,97786.97
2022-11-29T23:08:36.384Z,97782.13
2022-11-29T23:10:44.202Z,97779.34
2022-11-29T23:12:52.060Z,97781.19
2022-11-29T23:15:02.165Z,97785.72
2022-11-29T23:17:09.944Z,97776.78
2022-11-29T23:19:19.348Z,97791.06
2022-11-29T23:21:32.270Z,97781.91
2022-11-29T23:23:40.716Z,97781.16
2022-11-29T23:25:51.557Z,97779.41
2022-11-29T23:27:59.438Z,97784.97
2022-11-29T23:30:09.736Z,97780.97
2022-11-29T23:32:28.551Z,97788.34
2022-11-29T23:34:37.838Z,97789.00
2022-11-29T23:36:52.720Z,97778.50
2022-11-29T23:39:01.090Z,97770.63
2022-11-29T23:41:09.747Z,97768.06
2022-11-29T23:43:17.637Z,97763.88
2022-11-29T23:45:25.564Z,97760.53
2022-11-29T23:47:33.403Z,97763.44
2022-11-29T23:49:41.372Z,97759.84
2022-11-29T23:51:52.896Z,97763.34
2022-11-29T23:54:00.925Z,97769.56
2022-11-29T23:56:10.751Z,97765.31
2022-11-29T23:58:18.593Z,97758.38
